Time;durP1;ratioP1;P1;durP2;ratioP2;P2;SDS_P1;SDS_P2;PMS_P1;PMS_P2;Temp;Humidity;BMP_temperature;BMP_pressure;BME280_temperature;BME280_humidity;BME280_pressure;Samples;Min_cycle;Max_cycle;Signal;HPM_P1;HPM_P2
2020/12/23 00:00:51;;;;;;;3.97;1.17;;;5.20;99.90;;;;;;4959279;28;20360;-93
2020/12/23 00:03:23;;;;;;;4.17;1.30;;;5.20;99.90;;;;;;4941723;28;20216;-92
2020/12/23 00:22:04;;;;;;;3.57;2.13;;;4.40;99.90;;;;;;4595735;28;10001802;-93
2020/12/23 00:24:38;;;;;;;5.63;2.60;;;4.40;99.90;;;;;;4939692;28;20439;-94
2020/12/23 00:32:35;;;;;;;9.30;3.77;;;4.20;99.90;;;;;;4985773;23;20254;-96
2020/12/23 00:35:06;;;;;;;7.17;4.00;;;4.20;99.90;;;;;;4973209;28;20197;-95
2020/12/23 00:37:38;;;;;;;8.00;4.20;;;4.10;99.90;;;;;;4960629;28;20234;-95
2020/12/23 00:40:13;;;;;;;7.93;4.23;;;4.00;99.90;;;;;;4959117;29;20290;-95
2020/12/23 00:42:50;;;;;;;7.80;5.07;;;4.00;99.90;;;;;;4973042;28;20210;-94
2020/12/23 00:45:21;;;;;;;9.97;5.43;;;3.90;99.90;;;;;;4960155;29;20303;-96
2020/12/23 00:47:53;;;;;;;11.70;6.70;;;3.80;99.90;;;;;;4967894;29;20239;-96
2020/12/23 00:50:27;;;;;;;12.37;7.73;;;3.70;99.90;;;;;;4973776;28;20223;-95
2020/12/23 00:53:01;;;;;;;17.30;8.77;;;3.70;99.90;;;;;;4955366;28;20328;-96
2020/12/23 00:55:33;;;;;;;15.40;6.97;;;3.60;99.90;;;;;;4975376;28;20219;-96
2020/12/23 00:58:12;;;;;;;12.67;5.77;;;3.50;99.90;;;;;;4952135;28;20675;-96
2020/12/23 01:00:45;;;;;;;12.90;6.07;;;3.50;99.90;;;;;;4972064;28;20214;-96
2020/12/23 01:03:20;;;;;;;7.77;3.87;;;3.40;99.90;;;;;;4964303;28;20222;-96
2020/12/23 01:05:58;;;;;;;10.57;3.90;;;3.40;99.90;;;;;;4956441;28;20245;-96
2020/12/23 01:08:33;;;;;;;6.93;3.27;;;3.40;99.90;;;;;;4959846;28;20816;-96
2020/12/23 01:16:50;;;;;;;10.40;5.37;;;3.20;99.90;;;;;;4954100;28;20216;-96
2020/12/23 01:19:21;;;;;;;8.63;3.70;;;3.20;99.90;;;;;;4972144;28;20211;-96
2020/12/23 01:21:52;;;;;;;3.77;2.60;;;3.10;99.90;;;;;;4956516;28;20236;-95
2020/12/23 01:24:24;;;;;;;4.43;2.13;;;3.10;99.90;;;;;;4955122;28;20268;-95
2020/12/23 01:32:49;;;;;;;8.17;4.50;;;2.90;99.90;;;;;;4953213;28;20277;-96
2020/12/23 01:35:28;;;;;;;8.80;4.47;;;2.90;99.90;;;;;;4978136;28;20218;-96
2020/12/23 01:38:03;;;;;;;8.53;6.43;;;2.80;99.90;;;;;;4952205;29;20224;-96
2020/12/23 01:40:35;;;;;;;9.77;6.10;;;2.80;99.90;;;;;;4983992;23;20293;-96
2020/12/23 01:45:51;;;;;;;9.20;4.27;;;2.60;99.90;;;;;;5353312;23;20261;-96
2020/12/23 01:53:40;;;;;;;3.87;2.77;;;2.50;99.90;;;;;;5459754;23;20279;-96
2020/12/23 01:56:17;;;;;;;9.53;4.07;;;2.50;99.90;;;;;;5186343;23;20227;-96
2020/12/23 02:04:12;;;;;;;12.23;5.67;;;2.40;99.90;;;;;;5015620;23;20247;-96
2020/12/23 02:06:44;;;;;;;13.83;6.60;;;2.40;99.90;;;;;;4929360;29;20215;-96
2020/12/23 02:09:18;;;;;;;8.27;5.80;;;2.40;99.90;;;;;;4945550;29;20290;-94
2020/12/23 02:11:51;;;;;;;7.73;5.07;;;2.30;99.90;;;;;;4937184;29;20239;-96
2020/12/23 02:23:10;;;;;;;9.57;6.60;;;2.20;99.90;;;;;;5397536;23;20306;-96
2020/12/23 02:26:01;;;;;;;15.97;9.03;;;2.20;99.90;;;;;;5010873;23;20244;-96
2020/12/23 02:31:18;;;;;;;10.60;7.13;;;2.10;99.90;;;;;;5772562;23;20253;-96
2020/12/23 02:33:57;;;;;;;8.83;6.33;;;2.10;99.90;;;;;;4938192;28;20208;-95
2020/12/23 02:36:34;;;;;;;7.23;4.57;;;2.00;99.90;;;;;;4934417;29;20227;-91
2020/12/23 02:39:07;;;;;;;7.20;4.33;;;2.00;99.90;;;;;;4938409;29;20362;-93
2020/12/23 02:41:39;;;;;;;8.37;3.87;;;2.00;99.90;;;;;;4939563;29;20423;-93
2020/12/23 02:44:11;;;;;;;6.23;3.40;;;2.00;99.90;;;;;;4943930;28;20283;-92
2020/12/23 02:46:52;;;;;;;5.10;2.93;;;2.00;99.90;;;;;;4937183;28;20204;-91
2020/12/23 02:49:23;;;;;;;5.50;4.47;;;2.00;99.90;;;;;;4938720;28;20266;-91
2020/12/23 02:51:57;;;;;;;7.13;5.10;;;2.00;99.90;;;;;;4947506;29;20248;-95
2020/12/23 02:54:30;;;;;;;10.33;6.57;;;2.00;99.90;;;;;;4948712;28;20212;-94
2020/12/23 02:57:01;;;;;;;13.40;8.37;;;1.90;99.90;;;;;;4944951;29;20205;-96
2020/12/23 02:59:33;;;;;;;14.27;11.33;;;1.90;99.90;;;;;;4953931;28;20207;-95
2020/12/23 03:02:04;;;;;;;17.97;13.37;;;1.90;99.90;;;;;;4949394;29;20205;-94
2020/12/23 03:04:35;;;;;;;16.97;11.47;;;1.90;99.90;;;;;;4950005;29;20206;-95
2020/12/23 03:07:06;;;;;;;13.37;8.47;;;1.90;99.90;;;;;;4947642;28;20207;-95
2020/12/23 03:09:38;;;;;;;16.30;11.70;;;1.80;99.90;;;;;;4939075;28;20224;-94
2020/12/23 03:12:12;;;;;;;18.53;11.77;;;1.90;99.90;;;;;;4950596;28;20203;-95
2020/12/23 03:14:43;;;;;;;12.33;8.97;;;1.80;99.90;;;;;;4944721;29;20242;-94
2020/12/23 03:17:15;;;;;;;8.27;6.00;;;1.90;99.90;;;;;;4948031;29;20219;-95
2020/12/23 03:19:47;;;;;;;8.00;5.53;;;1.90;99.90;;;;;;4945432;29;20216;-95
2020/12/23 03:22:17;;;;;;;9.40;5.30;;;1.90;99.90;;;;;;4947304;28;20203;-94
2020/12/23 03:24:59;;;;;;;9.80;5.13;;;1.90;99.90;;;;;;4947908;29;20262;-94
2020/12/23 03:27:32;;;;;;;9.07;4.57;;;1.90;99.90;;;;;;4951790;28;20208;-95
2020/12/23 03:30:03;;;;;;;7.77;4.17;;;2.00;99.90;;;;;;4950198;29;20212;-94
2020/12/23 03:32:34;;;;;;;8.27;4.43;;;1.90;99.90;;;;;;4944502;29;20241;-95
2020/12/23 03:35:20;;;;;;;6.63;3.80;;;1.90;99.90;;;;;;4946435;29;20233;-94
2020/12/23 03:37:50;;;;;;;6.43;3.97;;;1.80;99.90;;;;;;4946955;28;20231;-94
2020/12/23 03:40:23;;;;;;;7.17;4.37;;;1.70;99.90;;;;;;4948464;29;20243;-94
2020/12/23 03:42:54;;;;;;;10.20;5.40;;;1.70;99.90;;;;;;4947346;29;20212;-94
2020/12/23 03:45:25;;;;;;;6.47;4.70;;;1.70;99.90;;;;;;4955454;29;20208;-94
2020/12/23 03:47:59;;;;;;;8.30;5.03;;;1.70;99.90;;;;;;4954664;29;20223;-95
2020/12/23 03:50:30;;;;;;;10.93;5.80;;;1.70;99.90;;;;;;4952118;29;20210;-96
2020/12/23 03:53:01;;;;;;;9.53;6.27;;;1.60;99.90;;;;;;4945470;29;20351;-92
2020/12/23 03:55:47;;;;;;;15.73;10.27;;;1.60;99.90;;;;;;4946852;28;20233;-94
2020/12/23 03:58:20;;;;;;;11.07;7.93;;;1.60;99.90;;;;;;4941934;29;20208;-94
2020/12/23 04:00:51;;;;;;;7.67;5.43;;;1.60;99.90;;;;;;4951373;29;20240;-95
2020/12/23 04:03:22;;;;;;;5.57;4.67;;;1.50;99.90;;;;;;4953582;28;20208;-94
2020/12/23 04:05:54;;;;;;;5.20;4.00;;;1.50;99.90;;;;;;4953469;29;20218;-95
2020/12/23 04:08:28;;;;;;;7.17;4.00;;;1.50;99.90;;;;;;4946713;28;20226;-95
2020/12/23 04:11:00;;;;;;;6.50;3.60;;;1.50;99.90;;;;;;4948692;29;20259;-96
2020/12/23 04:13:31;;;;;;;6.20;4.13;;;1.50;99.90;;;;;;4952519;29;20579;-91
2020/12/23 04:16:01;;;;;;;6.17;4.73;;;1.50;99.90;;;;;;4952073;29;20206;-92
2020/12/23 04:18:35;;;;;;;7.13;4.40;;;1.50;99.90;;;;;;4948693;28;20212;-93
2020/12/23 04:21:07;;;;;;;6.13;3.93;;;1.40;99.90;;;;;;4952775;29;20214;-94
2020/12/23 04:23:41;;;;;;;8.00;4.30;;;1.40;99.90;;;;;;4952654;28;20238;-94
2020/12/23 04:26:14;;;;;;;6.23;3.90;;;1.30;99.90;;;;;;4945536;29;20197;-96
2020/12/23 04:28:45;;;;;;;6.40;3.67;;;1.30;99.90;;;;;;4940619;29;20253;-89
2020/12/23 04:31:26;;;;;;;4.63;3.50;;;1.30;99.90;;;;;;4949025;29;20237;-89
2020/12/23 04:33:56;;;;;;;4.93;3.97;;;1.30;99.90;;;;;;4940327;29;20763;-89
2020/12/23 04:36:27;;;;;;;8.17;4.40;;;1.30;99.90;;;;;;4945892;28;20902;-88
2020/12/23 04:38:58;;;;;;;8.07;3.93;;;1.30;99.90;;;;;;4949653;29;20231;-91
2020/12/23 04:41:34;;;;;;;10.53;5.20;;;1.30;99.90;;;;;;4949328;29;20278;-92
2020/12/23 04:44:08;;;;;;;6.80;4.90;;;1.30;99.90;;;;;;4951935;29;20212;-93
2020/12/23 04:46:45;;;;;;;8.33;5.57;;;1.30;99.90;;;;;;4954411;29;20195;-95
2020/12/23 04:49:27;;;;;;;9.37;5.03;;;1.30;99.90;;;;;;4954963;29;20287;-96
2020/12/23 04:57:57;;;;;;;6.90;4.50;;;1.10;99.90;;;;;;4955432;28;20252;-96
2020/12/23 05:00:39;;;;;;;5.53;4.33;;;1.10;99.90;;;;;;4954813;29;20209;-96
2020/12/23 05:03:10;;;;;;;6.33;4.33;;;1.10;99.90;;;;;;4955446;28;20248;-96
2020/12/23 05:05:41;;;;;;;7.20;4.20;;;1.10;99.90;;;;;;4957494;28;20205;-96
2020/12/23 05:08:12;;;;;;;7.13;4.87;;;1.10;99.90;;;;;;4955039;28;20239;-96
2020/12/23 05:10:44;;;;;;;8.27;4.47;;;1.00;99.90;;;;;;4950444;28;20216;-96
2020/12/23 05:13:48;;;;;;;4.97;4.30;;;1.10;99.90;;;;;;4955700;28;20234;-96
2020/12/23 05:56:55;;;;;;;6.00;2.60;;;0.80;99.90;;;;;;4612748;28;10001387;-96
2020/12/23 05:59:27;;;;;;;3.93;2.83;;;0.80;99.90;;;;;;4953818;28;20199;-95
2020/12/23 06:04:56;;;;;;;6.07;2.90;;;0.90;99.90;;;;;;4950155;29;20208;-96
2020/12/23 06:07:33;;;;;;;3.50;2.60;;;0.90;99.90;;;;;;4953728;28;20254;-96
2020/12/23 06:10:06;;;;;;;5.53;2.97;;;0.90;99.90;;;;;;4948938;29;20248;-95
2020/12/23 06:12:47;;;;;;;5.33;2.70;;;0.90;99.90;;;;;;4944409;29;20193;-94
2020/12/23 06:36:52;;;;;;;2.17;1.80;;;0.80;99.90;;;;;;5029140;23;20235;-95
2020/12/23 06:39:32;;;;;;;4.23;2.00;;;0.80;99.90;;;;;;4947444;29;20212;-95
2020/12/23 06:42:26;;;;;;;5.17;1.70;;;0.80;99.90;;;;;;4947917;29;20283;-95
2020/12/23 06:45:08;;;;;;;3.37;1.73;;;0.80;99.90;;;;;;4951131;28;20200;-96
2020/12/23 06:47:43;;;;;;;5.27;2.50;;;0.80;99.90;;;;;;4952720;28;20208;-95
2020/12/23 07:01:21;;;;;;;3.35;2.00;;;0.80;99.90;;;;;;5058140;27;3153567;-94
2020/12/23 07:03:53;;;;;;;3.97;2.50;;;0.70;99.90;;;;;;5146366;28;20270;-95
2020/12/23 07:06:35;;;;;;;3.13;2.17;;;0.60;99.90;;;;;;5145949;27;20212;-94
2020/12/23 07:09:07;;;;;;;3.47;2.53;;;0.60;99.90;;;;;;5145137;27;20204;-96
2020/12/23 07:11:40;;;;;;;3.70;2.47;;;0.50;99.90;;;;;;5146537;27;20719;-95
2020/12/23 07:14:16;;;;;;;5.07;2.80;;;0.50;99.90;;;;;;5146748;28;20216;-96
2020/12/23 07:16:49;;;;;;;5.07;2.80;;;0.50;99.90;;;;;;5135966;28;20202;-95
2020/12/23 07:19:23;;;;;;;4.60;3.23;;;0.40;99.90;;;;;;5126969;28;20255;-96
2020/12/23 07:22:08;;;;;;;5.13;3.30;;;0.30;99.90;;;;;;5146095;27;20227;-96
2020/12/23 07:24:44;;;;;;;5.10;3.23;;;0.30;99.90;;;;;;5145710;28;20222;-95
2020/12/23 07:27:17;;;;;;;5.90;3.20;;;0.30;99.90;;;;;;5147206;27;20262;-93
2020/12/23 07:29:55;;;;;;;4.23;3.13;;;0.30;99.90;;;;;;5146435;27;20275;-96
2020/12/23 07:32:31;;;;;;;4.27;3.17;;;0.30;99.90;;;;;;5146786;28;20198;-96
2020/12/23 07:35:06;;;;;;;6.53;3.33;;;0.30;99.90;;;;;;5146123;27;20195;-96
2020/12/23 07:37:42;;;;;;;3.90;2.97;;;0.20;99.90;;;;;;5143781;28;20724;-96
2020/12/23 07:40:18;;;;;;;3.87;2.90;;;0.20;99.90;;;;;;5144723;27;20769;-96
2020/12/23 07:42:50;;;;;;;5.00;3.17;;;0.20;99.90;;;;;;5143206;27;20197;-94
2020/12/23 07:45:23;;;;;;;5.70;2.70;;;0.10;99.90;;;;;;5140264;27;20201;-95
2020/12/23 07:48:01;;;;;;;3.63;3.00;;;0.10;99.90;;;;;;5125715;28;20217;-95
2020/12/23 07:50:34;;;;;;;5.07;2.93;;;0.10;99.90;;;;;;5138694;27;20199;-94
2020/12/23 07:53:21;;;;;;;5.00;2.73;;;0.00;99.90;;;;;;5145344;28;20224;-96
2020/12/23 07:55:58;;;;;;;2.77;2.10;;;0.10;99.90;;;;;;5145476;27;20191;-95
2020/12/23 07:58:30;;;;;;;3.80;2.07;;;0.10;99.90;;;;;;5144289;28;20647;-95
2020/12/23 08:01:02;;;;;;;3.70;1.93;;;0.10;99.90;;;;;;5136327;28;20255;-96
2020/12/23 08:03:41;;;;;;;3.10;1.60;;;0.10;99.90;;;;;;5132023;28;20265;-96
2020/12/23 08:06:22;;;;;;;2.77;1.50;;;0.20;99.90;;;;;;5131590;28;20202;-94
2020/12/23 08:08:54;;;;;;;1.83;1.50;;;0.20;99.90;;;;;;5131775;28;20236;-96
2020/12/23 08:11:26;;;;;;;4.13;1.60;;;0.20;99.90;;;;;;5145496;27;20599;-95
2020/12/23 08:13:58;;;;;;;2.50;1.37;;;0.10;99.90;;;;;;5116835;28;20225;-94
2020/12/23 08:16:28;;;;;;;3.47;1.40;;;0.10;99.90;;;;;;5115719;28;20352;-94
2020/12/23 08:19:00;;;;;;;3.57;1.53;;;0.10;99.90;;;;;;5131208;28;20229;-95
2020/12/23 08:21:45;;;;;;;2.30;1.40;;;0.10;99.90;;;;;;5129582;28;20198;-94
2020/12/23 08:24:19;;;;;;;4.27;1.57;;;0.20;99.90;;;;;;5130223;28;20206;-95
2020/12/23 08:26:52;;;;;;;2.20;1.37;;;0.10;99.90;;;;;;5131713;27;20258;-94
2020/12/23 08:29:24;;;;;;;1.80;1.20;;;0.10;99.90;;;;;;5134428;27;20225;-94
2020/12/23 08:31:57;;;;;;;1.90;1.43;;;0.10;99.90;;;;;;5129603;28;20242;-95
2020/12/23 08:34:29;;;;;;;2.13;1.33;;;0.10;99.90;;;;;;5129960;28;20237;-94
2020/12/23 08:37:00;;;;;;;1.47;1.30;;;0.20;99.90;;;;;;5130249;28;20195;-96
2020/12/23 08:39:32;;;;;;;2.17;1.40;;;0.20;99.90;;;;;;5116427;28;20229;-95
2020/12/23 08:42:09;;;;;;;2.40;1.50;;;0.10;99.90;;;;;;5129135;28;20254;-94
2020/12/23 08:47:29;;;;;;;2.70;1.70;;;0.20;99.90;;;;;;5319108;22;20220;-96
2020/12/23 08:50:03;;;;;;;2.80;1.60;;;0.20;99.90;;;;;;5069417;28;20201;-95
2020/12/23 08:52:34;;;;;;;2.43;1.60;;;0.20;99.90;;;;;;5069471;28;20225;-95
2020/12/23 08:58:09;;;;;;;3.47;2.53;;;0.10;99.90;;;;;;5069683;28;20243;-95
2020/12/23 09:00:41;;;;;;;4.13;2.17;;;0.10;99.90;;;;;;5067686;28;20310;-95
2020/12/23 09:03:24;;;;;;;2.97;2.23;;;0.00;99.90;;;;;;5069105;28;20222;-96
2020/12/23 09:08:38;;;;;;;2.87;2.00;;;0.00;99.90;;;;;;5384329;22;20263;-95
2020/12/23 09:11:10;;;;;;;4.67;2.03;;;-0.10;99.90;;;;;;5065446;28;20219;-96
2020/12/23 09:13:42;;;;;;;2.73;1.67;;;-0.10;99.90;;;;;;5049876;28;20204;-96
2020/12/23 09:16:18;;;;;;;2.00;1.80;;;-0.20;99.90;;;;;;5067930;28;20227;-95
2020/12/23 09:18:51;;;;;;;2.20;1.70;;;-0.20;99.90;;;;;;5066455;28;20772;-94
2020/12/23 09:21:23;;;;;;;3.47;1.73;;;-0.20;99.90;;;;;;5068979;28;20198;-94
2020/12/23 09:23:54;;;;;;;2.13;1.60;;;-0.20;99.90;;;;;;5069176;28;20281;-94
2020/12/23 09:26:29;;;;;;;3.17;1.73;;;-0.30;99.90;;;;;;5037454;28;20197;-95
2020/12/23 09:29:04;;;;;;;2.83;1.97;;;-0.30;99.90;;;;;;5067844;28;20277;-96
2020/12/23 09:31:38;;;;;;;6.37;3.80;;;-0.30;99.90;;;;;;5063183;28;20212;-96
2020/12/23 09:34:09;;;;;;;7.33;4.33;;;-0.30;99.90;;;;;;5049551;28;20204;-95
2020/12/23 09:36:41;;;;;;;11.23;5.77;;;-0.40;99.90;;;;;;5060415;28;20239;-95
2020/12/23 09:39:18;;;;;;;6.87;5.23;;;-0.40;99.90;;;;;;5059647;28;20246;-95
2020/12/23 09:42:01;;;;;;;9.00;5.87;;;-0.40;99.90;;;;;;5051113;28;20216;-95
2020/12/23 09:44:33;;;;;;;5.80;4.00;;;-0.40;99.90;;;;;;5067782;28;20227;-96
2020/12/23 09:47:04;;;;;;;4.50;2.70;;;-0.40;99.90;;;;;;5048738;28;20200;-96
2020/12/23 09:49:35;;;;;;;5.23;2.77;;;-0.40;99.90;;;;;;5050134;28;20240;-96
2020/12/23 09:52:06;;;;;;;4.10;2.43;;;-0.40;99.90;;;;;;5056189;28;20201;-95
2020/12/23 09:54:40;;;;;;;3.90;2.20;;;-0.40;99.90;;;;;;5058630;28;20501;-95
2020/12/23 09:57:11;;;;;;;3.87;2.00;;;-0.40;99.90;;;;;;5066801;28;20212;-94
2020/12/23 09:59:43;;;;;;;4.47;1.53;;;-0.40;99.90;;;;;;5053392;28;20221;-94
2020/12/23 10:02:15;;;;;;;2.63;1.50;;;-0.40;99.90;;;;;;5046604;28;20202;-94
2020/12/23 10:04:45;;;;;;;3.60;1.57;;;-0.40;99.90;;;;;;5049597;28;20198;-95
2020/12/23 10:07:20;;;;;;;3.23;2.00;;;-0.40;99.90;;;;;;5066254;28;20206;-93
2020/12/23 10:09:56;;;;;;;2.23;1.17;;;-0.40;99.90;;;;;;5050925;28;20227;-96
2020/12/23 10:12:29;;;;;;;2.63;2.20;;;-0.40;99.90;;;;;;5052674;28;20208;-94
2020/12/23 10:15:00;;;;;;;4.40;2.80;;;-0.40;99.90;;;;;;5063426;28;20626;-94
2020/12/23 10:17:30;;;;;;;4.93;2.70;;;-0.50;99.90;;;;;;5066482;28;20209;-94
2020/12/23 10:20:04;;;;;;;3.17;2.17;;;-0.50;99.90;;;;;;5050988;28;20240;-94
2020/12/23 10:22:37;;;;;;;2.53;1.73;;;-0.50;99.90;;;;;;5055894;28;20209;-94
2020/12/23 10:33:22;;;;;;;3.67;1.90;;;-0.60;99.90;;;;;;4991989;28;20228;-95
2020/12/23 10:35:53;;;;;;;3.90;1.70;;;-0.60;99.90;;;;;;5009440;28;20194;-95
2020/12/23 10:38:25;;;;;;;3.03;1.60;;;-0.60;99.90;;;;;;4993727;28;20349;-95
2020/12/23 10:40:57;;;;;;;2.57;1.70;;;-0.60;99.90;;;;;;4992263;28;20210;-95
2020/12/23 10:43:29;;;;;;;2.73;1.50;;;-0.70;99.90;;;;;;4989302;28;20322;-93
2020/12/23 10:46:00;;;;;;;2.60;1.50;;;-0.60;99.90;;;;;;4979057;28;20188;-96
2020/12/23 10:48:34;;;;;;;2.80;1.83;;;-0.60;99.90;;;;;;4995013;28;20262;-95
2020/12/23 10:51:05;;;;;;;2.67;1.80;;;-0.60;99.90;;;;;;4995055;28;20199;-94
2020/12/23 10:53:38;;;;;;;3.10;1.30;;;-0.70;99.90;;;;;;4995529;28;20288;-96
2020/12/23 10:56:13;;;;;;;4.80;1.50;;;-0.70;99.90;;;;;;4995938;28;20264;-96
2020/12/23 10:58:46;;;;;;;2.60;1.37;;;-0.60;99.90;;;;;;4995797;28;20215;-95
2020/12/23 11:01:22;;;;;;;1.90;1.60;;;-0.60;99.90;;;;;;4995179;28;20198;-96
2020/12/23 11:03:54;;;;;;;2.67;1.67;;;-0.60;99.90;;;;;;4995155;28;20213;-96
2020/12/23 11:11:36;;;;;;;1.67;1.50;;;-0.60;99.90;;;;;;5007879;28;20217;-95
2020/12/23 11:14:06;;;;;;;5.33;1.63;;;-0.50;99.90;;;;;;5010807;28;20211;-95
2020/12/23 11:16:38;;;;;;;1.63;1.30;;;-0.50;99.90;;;;;;4999654;28;20195;-95
2020/12/23 11:19:12;;;;;;;1.30;1.20;;;-0.50;99.90;;;;;;5002494;28;20266;-95
2020/12/23 11:21:44;;;;;;;2.80;1.00;;;-0.40;99.90;;;;;;5007891;28;20660;-95
2020/12/23 11:24:15;;;;;;;2.23;1.10;;;-0.40;99.90;;;;;;5007660;28;20241;-96
2020/12/23 11:26:46;;;;;;;4.87;1.40;;;-0.40;99.90;;;;;;5003748;28;20203;-96
2020/12/23 11:29:16;;;;;;;4.93;1.53;;;-0.40;99.90;;;;;;4988190;28;20325;-96
2020/12/23 11:31:51;;;;;;;2.43;1.50;;;-0.40;99.90;;;;;;5005242;28;20198;-96
2020/12/23 11:34:24;;;;;;;2.70;1.27;;;-0.30;99.90;;;;;;5005861;28;20202;-95
2020/12/23 11:37:02;;;;;;;3.47;1.00;;;-0.30;99.90;;;;;;5009833;28;20203;-96
2020/12/23 11:39:34;;;;;;;4.00;1.70;;;-0.30;99.90;;;;;;5008865;28;20228;-96
2020/12/23 11:42:06;;;;;;;3.97;1.33;;;-0.30;99.90;;;;;;5008518;28;20212;-95
2020/12/23 11:44:37;;;;;;;1.53;1.00;;;-0.20;99.90;;;;;;5000166;28;20248;-96
2020/12/23 11:47:09;;;;;;;2.03;1.10;;;-0.20;99.90;;;;;;5011805;28;20208;-95
2020/12/23 11:49:44;;;;;;;2.23;1.30;;;-0.20;99.90;;;;;;5011308;28;20323;-95
2020/12/23 11:52:15;;;;;;;2.57;1.40;;;-0.20;99.90;;;;;;5010384;28;20260;-96
2020/12/23 11:54:49;;;;;;;2.20;1.33;;;-0.20;99.90;;;;;;5013205;28;20226;-96
2020/12/23 11:57:23;;;;;;;2.00;0.87;;;-0.20;99.90;;;;;;5012778;28;20218;-95
2020/12/23 11:59:56;;;;;;;1.70;1.10;;;-0.20;99.90;;;;;;5011654;28;20237;-95
2020/12/23 12:02:27;;;;;;;1.73;1.30;;;-0.20;99.90;;;;;;5011965;28;20191;-95
2020/12/23 12:04:59;;;;;;;1.30;1.20;;;-0.20;99.90;;;;;;5012619;28;20208;-95
2020/12/23 12:07:31;;;;;;;2.67;1.57;;;-0.20;99.90;;;;;;5030218;28;20206;-95
2020/12/23 12:10:03;;;;;;;2.27;1.50;;;-0.30;99.90;;;;;;5011773;28;20214;-96
2020/12/23 12:12:35;;;;;;;3.07;1.30;;;-0.30;99.90;;;;;;5000173;28;20202;-94
2020/12/23 12:15:06;;;;;;;1.17;0.93;;;-0.30;99.90;;;;;;5013720;28;20202;-89
2020/12/23 12:23:02;;;;;;;3.37;2.03;;;-0.40;99.90;;;;;;5055939;28;20216;-96
2020/12/23 12:25:41;;;;;;;5.90;1.87;;;-0.40;99.90;;;;;;5041610;28;20184;-93
2020/12/23 12:28:12;;;;;;;2.63;1.67;;;-0.40;99.90;;;;;;5165894;23;20277;-95
2020/12/23 12:30:44;;;;;;;5.10;2.10;;;-0.50;99.90;;;;;;5022578;28;20266;-95
2020/12/23 12:33:16;;;;;;;5.17;1.90;;;-0.40;99.90;;;;;;5029938;28;20221;-96
2020/12/23 12:35:47;;;;;;;4.03;2.00;;;-0.50;99.90;;;;;;5013435;28;20251;-96
2020/12/23 12:38:19;;;;;;;2.97;1.60;;;-0.50;99.90;;;;;;5001190;28;20216;-94
2020/12/23 12:40:50;;;;;;;1.97;1.40;;;-0.60;99.90;;;;;;5011768;28;20248;-95
2020/12/23 12:43:21;;;;;;;3.07;1.40;;;-0.60;99.90;;;;;;5004416;28;20207;-96
2020/12/23 12:45:52;;;;;;;2.43;1.40;;;-0.60;99.90;;;;;;5002740;28;20204;-95
2020/12/23 12:48:25;;;;;;;3.40;1.50;;;-0.70;99.90;;;;;;4991502;28;20200;-93
2020/12/23 12:50:55;;;;;;;2.27;1.60;;;-0.70;99.90;;;;;;5007273;28;20270;-95
2020/12/23 12:53:28;;;;;;;1.97;1.63;;;-0.70;99.90;;;;;;5009452;28;20270;-95
2020/12/23 12:55:58;;;;;;;5.60;1.70;;;-0.70;99.90;;;;;;5009464;28;20217;-96
2020/12/23 12:58:29;;;;;;;3.10;1.70;;;-0.70;99.90;;;;;;4999275;28;20204;-95
2020/12/23 13:00:59;;;;;;;5.63;2.00;;;-0.80;99.90;;;;;;4989112;28;20271;-94
2020/12/23 13:03:37;;;;;;;2.57;1.57;;;-0.70;99.90;;;;;;5007351;28;20214;-95
2020/12/23 13:06:08;;;;;;;4.70;2.07;;;-0.80;99.90;;;;;;5006587;28;20239;-95
2020/12/23 13:08:41;;;;;;;2.73;1.70;;;-0.80;99.90;;;;;;5003158;28;20475;-95
2020/12/23 13:11:25;;;;;;;3.30;1.60;;;-0.80;99.90;;;;;;5006354;28;20202;-93
2020/12/23 13:13:56;;;;;;;2.30;1.50;;;-0.80;99.90;;;;;;5010618;28;20211;-95
2020/12/23 13:16:29;;;;;;;2.97;1.63;;;-0.80;99.90;;;;;;5019719;28;20211;-95
2020/12/23 13:19:01;;;;;;;3.80;1.80;;;-0.80;99.90;;;;;;5011788;28;20251;-95
2020/12/23 13:21:32;;;;;;;3.67;1.67;;;-0.80;99.90;;;;;;5020379;28;20219;-95
2020/12/23 13:24:05;;;;;;;3.13;1.50;;;-0.80;99.90;;;;;;5013618;28;20198;-94
2020/12/23 13:29:21;;;;;;;2.40;1.00;;;-0.80;99.90;;;;;;5021857;28;20544;-96
2020/12/23 13:31:52;;;;;;;2.53;1.37;;;-0.80;99.90;;;;;;5006123;28;20210;-95
2020/12/23 13:34:23;;;;;;;2.50;1.30;;;-0.80;99.90;;;;;;4991257;28;20273;-95
2020/12/23 13:36:54;;;;;;;1.70;1.30;;;-0.80;99.90;;;;;;4989702;28;20724;-95
2020/12/23 13:39:28;;;;;;;1.83;1.23;;;-0.80;99.90;;;;;;5007371;28;20187;-95
2020/12/23 13:41:59;;;;;;;2.87;1.20;;;-0.80;99.90;;;;;;5017612;28;20209;-96
2020/12/23 13:44:30;;;;;;;2.40;1.07;;;-0.80;99.90;;;;;;5025880;28;20202;-94
2020/12/23 13:47:02;;;;;;;4.30;1.60;;;-0.80;99.90;;;;;;5009150;28;20261;-94
2020/12/23 13:49:34;;;;;;;3.07;1.10;;;-0.80;99.90;;;;;;5009548;28;20211;-95
2020/12/23 13:52:10;;;;;;;3.57;1.80;;;-0.80;99.90;;;;;;5008500;28;20231;-95
2020/12/23 13:54:45;;;;;;;3.97;1.90;;;-0.80;99.90;;;;;;4988494;28;20208;-95
2020/12/23 13:57:17;;;;;;;2.17;1.83;;;-0.80;99.90;;;;;;4987891;28;20215;-95
2020/12/23 13:59:48;;;;;;;2.73;1.87;;;-0.80;99.90;;;;;;4987619;28;20291;-95
2020/12/23 14:02:20;;;;;;;3.87;1.73;;;-0.80;99.90;;;;;;4993461;28;20203;-94
2020/12/23 14:04:51;;;;;;;2.57;1.90;;;-0.80;99.90;;;;;;4989011;28;20272;-95
2020/12/23 14:07:23;;;;;;;1.93;1.73;;;-0.80;99.90;;;;;;4995575;28;20290;-93
2020/12/23 14:09:55;;;;;;;4.53;1.60;;;-0.80;99.90;;;;;;5097532;23;20242;-94
2020/12/23 14:12:27;;;;;;;2.17;1.43;;;-0.80;99.90;;;;;;5006782;28;20222;-95
2020/12/23 14:15:00;;;;;;;3.50;1.80;;;-0.80;99.90;;;;;;5008955;28;20210;-95
2020/12/23 14:17:33;;;;;;;2.47;1.73;;;-0.80;99.90;;;;;;5008812;28;20200;-96
2020/12/23 14:20:17;;;;;;;2.57;1.67;;;-0.80;99.90;;;;;;5008873;28;20229;-95
2020/12/23 14:22:52;;;;;;;6.43;2.00;;;-0.90;99.90;;;;;;5007192;28;20245;-96
2020/12/23 14:25:25;;;;;;;3.33;1.57;;;-0.90;99.90;;;;;;5007882;28;20225;-94
2020/12/23 14:27:55;;;;;;;3.37;2.13;;;-0.90;99.90;;;;;;5008021;28;20238;-95
2020/12/23 14:30:28;;;;;;;2.73;1.90;;;-0.90;99.90;;;;;;5008085;28;20304;-95
2020/12/23 14:32:58;;;;;;;1.97;1.63;;;-0.90;99.90;;;;;;5006105;28;20845;-94
2020/12/23 14:35:34;;;;;;;2.57;1.63;;;-0.90;99.90;;;;;;5008029;28;20265;-96
2020/12/23 14:38:13;;;;;;;2.93;1.70;;;-0.90;99.90;;;;;;5007004;28;20574;-95
2020/12/23 14:40:45;;;;;;;2.63;1.80;;;-0.90;99.90;;;;;;5003892;28;20720;-95
2020/12/23 14:43:16;;;;;;;4.13;1.80;;;-0.90;99.90;;;;;;5003805;28;20202;-94
2020/12/23 14:45:47;;;;;;;3.30;2.30;;;-0.90;99.90;;;;;;4995994;28;20213;-95
2020/12/23 14:51:05;;;;;;;4.93;2.10;;;-0.80;99.90;;;;;;5003166;28;20210;-96
2020/12/23 14:53:37;;;;;;;5.37;2.00;;;-0.90;99.90;;;;;;5007162;28;20210;-96
2020/12/23 14:56:10;;;;;;;2.93;2.20;;;-0.90;99.90;;;;;;5006427;28;20250;-95
2020/12/23 14:58:41;;;;;;;3.57;2.43;;;-0.90;99.90;;;;;;5006519;28;20221;-95
2020/12/23 15:01:11;;;;;;;5.10;2.27;;;-0.90;99.90;;;;;;5004949;28;20238;-95
2020/12/23 15:03:42;;;;;;;3.80;2.40;;;-0.90;99.90;;;;;;5006170;28;20656;-95
2020/12/23 15:06:14;;;;;;;4.57;2.70;;;-0.80;99.90;;;;;;5001496;28;20198;-95
2020/12/23 15:08:47;;;;;;;4.70;2.80;;;-0.80;99.90;;;;;;5007925;28;20191;-95
2020/12/23 15:11:32;;;;;;;5.27;2.60;;;-0.80;99.90;;;;;;5008900;28;20274;-95
2020/12/23 15:14:05;;;;;;;5.10;2.80;;;-0.70;99.90;;;;;;5010781;28;20211;-95
2020/12/23 15:16:41;;;;;;;3.03;2.50;;;-0.70;99.90;;;;;;4999364;28;20227;-95
2020/12/23 15:19:16;;;;;;;7.50;2.53;;;-0.80;99.90;;;;;;5013539;28;20202;-96
2020/12/23 15:21:48;;;;;;;3.43;2.63;;;-0.80;99.90;;;;;;5013955;28;20253;-96
2020/12/23 15:27:10;;;;;;;4.17;2.70;;;-0.70;99.90;;;;;;5011871;28;20211;-95
2020/12/23 15:32:29;;;;;;;3.50;2.60;;;-0.70;99.90;;;;;;5005573;28;20274;-94
2020/12/23 15:35:00;;;;;;;3.73;2.97;;;-0.70;99.90;;;;;;5014214;28;20226;-96
2020/12/23 15:37:34;;;;;;;4.03;2.77;;;-0.60;99.90;;;;;;5012644;28;20226;-96
2020/12/23 15:40:05;;;;;;;4.60;2.77;;;-0.70;99.90;;;;;;5005406;28;20257;-96
2020/12/23 15:42:37;;;;;;;5.37;2.93;;;-0.60;99.90;;;;;;5010917;28;20252;-95
2020/12/23 15:45:08;;;;;;;3.33;2.30;;;-0.60;99.90;;;;;;5010702;28;20218;-96
2020/12/23 15:47:38;;;;;;;3.93;2.23;;;-0.50;99.90;;;;;;5011965;28;20241;-96
2020/12/23 15:50:10;;;;;;;5.60;2.50;;;-0.50;99.90;;;;;;5010790;28;20206;-96
2020/12/23 15:52:43;;;;;;;3.73;2.47;;;-0.40;99.90;;;;;;5011796;28;20203;-96
2020/12/23 15:55:14;;;;;;;5.83;2.43;;;-0.40;99.90;;;;;;5012969;28;20183;-96
2020/12/23 15:57:47;;;;;;;3.03;2.50;;;-0.40;99.90;;;;;;5011209;28;20293;-96
2020/12/23 16:00:18;;;;;;;3.37;2.30;;;-0.40;99.90;;;;;;5011845;28;20230;-96
2020/12/23 16:02:49;;;;;;;2.30;1.73;;;-0.40;99.90;;;;;;5012032;28;20242;-94
2020/12/23 16:05:20;;;;;;;3.53;2.20;;;-0.40;99.90;;;;;;4997290;28;20202;-95
2020/12/23 16:07:57;;;;;;;3.57;2.50;;;-0.40;99.90;;;;;;5011455;28;20210;-96
2020/12/23 16:10:33;;;;;;;4.23;2.27;;;-0.40;99.90;;;;;;5011986;28;20221;-95
2020/12/23 16:13:23;;;;;;;4.77;2.07;;;-0.40;99.90;;;;;;4991203;28;20213;-95
2020/12/23 16:15:56;;;;;;;3.97;2.00;;;-0.40;99.90;;;;;;5012171;28;20199;-96
2020/12/23 16:18:27;;;;;;;4.20;2.10;;;-0.40;99.90;;;;;;5011221;28;20202;-93
2020/12/23 16:21:00;;;;;;;3.23;2.60;;;-0.40;99.90;;;;;;5011723;28;20240;-91